Time;durP1;ratioP1;P1;durP2;ratioP2;P2;SDS_P1;SDS_P2;PMS_P1;PMS_P2;Temp;Humidity;BMP_temperature;BMP_pressure;BME280_temperature;BME280_humidity;BME280_pressure;Samples;Min_cycle;Max_cycle;Signal;HPM_P1;HPM_P2
2023/09/28 00:01:58;;;;;;;0.10;0.10;;;;;;;18.19;100.00;101170.69;5116281;28;20084;-45
2023/09/28 00:04:24;;;;;;;0.00;0.00;;;;;;;18.21;100.00;101182.00;5116654;28;20046;-44
2023/09/28 00:06:49;;;;;;;0.05;0.05;;;;;;;18.19;100.00;101187.22;5116869;28;20027;-43
2023/09/28 00:09:16;;;;;;;0.05;0.05;;;;;;;18.12;100.00;101180.22;5115691;28;20114;-45
2023/09/28 00:11:42;;;;;;;0.00;0.00;;;;;;;18.11;100.00;101188.91;5117068;28;20019;-44
2023/09/28 00:14:07;;;;;;;0.10;0.10;;;;;;;18.05;100.00;101179.34;5116638;28;20390;-44
2023/09/28 00:16:32;;;;;;;0.03;0.03;;;;;;;18.04;100.00;101193.25;5115743;28;20526;-46
2023/09/28 00:18:58;;;;;;;0.00;0.00;;;;;;;17.97;100.00;101188.00;5116589;28;20424;-44
2023/09/28 00:21:24;;;;;;;0.00;0.00;;;;;;;17.91;100.00;101199.25;5116215;28;20031;-44
2023/09/28 00:23:49;;;;;;;0.00;0.00;;;;;;;17.85;100.00;101189.63;5115878;28;20383;-45
2023/09/28 00:26:16;;;;;;;0.00;0.00;;;;;;;17.81;100.00;101190.50;5116473;28;20027;-41
2023/09/28 00:28:42;;;;;;;0.00;0.00;;;;;;;17.81;100.00;101193.09;5116728;28;20030;-46
2023/09/28 00:31:09;;;;;;;0.00;0.00;;;;;;;17.67;100.00;101190.41;5115762;28;20023;-42
2023/09/28 00:33:34;;;;;;;0.10;0.10;;;;;;;17.66;100.00;101191.28;5116157;28;20040;-44
2023/09/28 00:35:59;;;;;;;0.00;0.00;;;;;;;17.61;100.00;101203.41;5116299;28;20023;-43
2023/09/28 00:38:25;;;;;;;0.10;0.10;;;;;;;17.59;100.00;101208.59;5115319;28;20024;-45
2023/09/28 00:40:50;;;;;;;0.00;0.00;;;;;;;17.59;100.00;101210.34;5116129;28;20027;-43
2023/09/28 00:43:25;;;;;;;0.00;0.00;;;;;;;17.58;100.00;101219.03;5115890;28;20027;-43
2023/09/28 00:45:50;;;;;;;0.10;0.10;;;;;;;17.58;100.00;101216.44;5114034;28;20087;-43
2023/09/28 00:48:16;;;;;;;0.00;0.00;;;;;;;17.54;100.00;101217.28;5115856;28;20020;-41
2023/09/28 00:50:42;;;;;;;0.00;0.00;;;;;;;17.48;100.00;101218.13;5115182;28;20020;-46
2023/09/28 00:53:08;;;;;;;0.10;0.10;;;;;;;17.42;100.00;101224.13;5115910;28;20535;-44
2023/09/28 00:55:36;;;;;;;0.10;0.10;;;;;;;17.39;100.00;101213.69;5115740;28;20028;-43
2023/09/28 00:58:04;;;;;;;0.10;0.10;;;;;;;17.39;100.00;101213.69;5114955;28;20050;-44
2023/09/28 01:00:33;;;;;;;0.00;0.00;;;;;;;17.32;100.00;101209.28;5115563;28;20024;-43
2023/09/28 01:03:02;;;;;;;0.05;0.05;;;;;;;17.36;100.00;101205.84;5115748;28;20019;-42
2023/09/28 01:05:40;;;;;;;0.00;0.00;;;;;;;17.38;100.00;101211.97;5114726;28;20027;-43
2023/09/28 01:08:07;;;;;;;0.10;0.10;;;;;;;17.31;100.00;101210.16;5115851;28;20027;-42
2023/09/28 01:10:35;;;;;;;0.10;0.10;;;;;;;17.26;100.00;101217.94;5115492;28;20019;-46
2023/09/28 01:13:11;;;;;;;0.00;0.00;;;;;;;17.25;100.00;101220.56;5114810;28;20016;-43
2023/09/28 01:15:46;;;;;;;0.10;0.10;;;;;;;17.22;100.00;101220.50;5115492;28;20024;-45
2023/09/28 01:18:17;;;;;;;0.10;0.10;;;;;;;17.18;100.00;101213.53;5115274;28;20099;-43
2023/09/28 01:20:47;;;;;;;0.03;0.03;;;;;;;17.14;100.00;101214.38;5114840;28;20106;-43
2023/09/28 01:23:13;;;;;;;0.10;0.10;;;;;;;17.08;100.00;101213.47;5115242;28;20114;-43
2023/09/28 01:25:39;;;;;;;0.10;0.10;;;;;;;17.04;100.00;101226.44;5115286;28;20054;-45
2023/09/28 01:28:06;;;;;;;0.00;0.00;;;;;;;17.00;100.00;101220.31;5114504;28;20047;-45
2023/09/28 01:30:32;;;;;;;0.10;0.10;;;;;;;16.97;100.00;101225.50;5115225;28;20035;-46
2023/09/28 01:32:57;;;;;;;0.10;0.10;;;;;;;16.92;100.00;101228.06;5114319;28;20471;-44
2023/09/28 01:35:23;;;;;;;0.00;0.00;;;;;;;16.95;100.00;101214.19;5115009;28;20031;-45
2023/09/28 01:37:59;;;;;;;0.10;0.10;;;;;;;16.92;100.00;101216.78;5115144;28;20011;-44
2023/09/28 01:40:24;;;;;;;0.08;0.08;;;;;;;16.94;100.00;101212.47;5114035;28;20028;-45
2023/09/28 01:42:49;;;;;;;0.10;0.10;;;;;;;16.88;100.00;101222.78;5114892;28;20073;-42
2023/09/28 01:45:15;;;;;;;0.03;0.03;;;;;;;16.85;100.00;101225.34;5114746;28;20028;-42
2023/09/28 01:47:40;;;;;;;0.00;0.00;;;;;;;16.77;100.00;101228.75;5114484;28;20024;-43
2023/09/28 01:50:06;;;;;;;0.10;0.10;;;;;;;16.82;100.00;101240.94;5114954;28;20019;-43
2023/09/28 01:52:32;;;;;;;0.10;0.10;;;;;;;16.81;100.00;101228.78;5114618;28;20386;-44
2023/09/28 01:54:57;;;;;;;0.10;0.10;;;;;;;16.80;100.00;101222.72;5114015;28;20091;-44
2023/09/28 01:57:22;;;;;;;0.10;0.10;;;;;;;16.80;100.00;101222.72;5113783;28;20036;-42
2023/09/28 01:59:48;;;;;;;0.10;0.10;;;;;;;16.83;100.00;101227.09;5114911;28;20416;-44
2023/09/28 02:02:16;;;;;;;0.10;0.10;;;;;;;16.83;100.00;101238.34;5113661;28;20026;-42
2023/09/28 02:04:42;;;;;;;0.08;0.08;;;;;;;16.77;100.00;101239.19;5114563;28;20028;-44
2023/09/28 02:07:07;;;;;;;0.10;0.10;;;;;;;16.79;100.00;101242.66;5114549;28;20039;-43
2023/09/28 02:09:33;;;;;;;0.10;0.10;;;;;;;16.79;100.00;101242.66;5113377;28;20039;-42
2023/09/28 02:11:58;;;;;;;0.10;0.10;;;;;;;16.76;100.00;101253.03;5114350;28;20494;-44
2023/09/28 02:14:24;;;;;;;0.10;0.10;;;;;;;16.73;100.00;101255.63;5114108;28;20479;-45
2023/09/28 02:16:52;;;;;;;0.10;0.10;;;;;;;16.72;100.00;101251.28;5113678;28;20039;-41
2023/09/28 02:19:18;;;;;;;0.10;0.10;;;;;;;16.63;100.00;101256.38;5114277;28;20027;-41
2023/09/28 02:21:44;;;;;;;0.10;0.10;;;;;;;16.55;100.00;101258.00;5114336;28;20145;-44
2023/09/28 02:24:10;;;;;;;0.10;0.10;;;;;;;16.51;100.00;101246.69;5113249;28;20051;-43
2023/09/28 02:26:35;;;;;;;0.10;0.10;;;;;;;16.54;100.00;101251.03;5113914;28;20019;-42
2023/09/28 02:29:02;;;;;;;0.00;0.00;;;;;;;16.42;100.00;101252.66;5113946;28;20515;-41
2023/09/28 02:31:28;;;;;;;0.10;0.10;;;;;;;16.42;100.00;101263.06;5113951;28;20026;-42
2023/09/28 02:33:54;;;;;;;0.10;0.10;;;;;;;16.42;100.00;101257.88;5114185;28;20022;-42
2023/09/28 02:36:20;;;;;;;0.10;0.10;;;;;;;16.38;100.00;101250.88;5112985;28;20020;-44
2023/09/28 02:38:46;;;;;;;0.10;0.10;;;;;;;16.34;100.00;101248.22;5113978;28;20402;-43
2023/09/28 02:41:18;;;;;;;0.10;0.10;;;;;;;16.33;100.00;101257.75;5113763;28;20016;-42
2023/09/28 02:43:44;;;;;;;0.10;0.10;;;;;;;16.28;100.00;101259.41;5113262;28;20048;-42
2023/09/28 02:46:09;;;;;;;0.10;0.10;;;;;;;16.25;100.00;101264.59;5113886;28;20054;-43
2023/09/28 02:48:35;;;;;;;0.10;0.10;;;;;;;16.26;100.00;101264.59;5113629;28;20151;-44
2023/09/28 02:51:04;;;;;;;0.10;0.10;;;;;;;16.25;100.00;101261.97;5113194;28;20427;-45
2023/09/28 02:53:32;;;;;;;0.10;0.10;;;;;;;16.23;100.00;101263.69;5113596;28;20046;-42
2023/09/28 02:55:57;;;;;;;0.10;0.10;;;;;;;16.23;100.00;101264.56;5113752;28;20030;-42
2023/09/28 02:58:24;;;;;;;0.10;0.10;;;;;;;16.19;100.00;101264.50;5112705;28;20023;-43
2023/09/28 03:00:51;;;;;;;0.10;0.10;;;;;;;16.15;100.00;101267.91;5113517;28;20024;-43
2023/09/28 03:03:16;;;;;;;0.10;0.10;;;;;;;16.08;100.00;101262.63;5113310;28;20031;-44
2023/09/28 03:05:42;;;;;;;0.10;0.10;;;;;;;16.04;100.00;101265.19;5112688;28;20028;-45
2023/09/28 03:08:09;;;;;;;0.10;0.10;;;;;;;16.02;100.00;101269.47;5113005;28;20035;-42
2023/09/28 03:10:39;;;;;;;0.10;0.10;;;;;;;15.97;100.00;101279.78;5113088;28;20103;-43
2023/09/28 03:13:05;;;;;;;0.10;0.10;;;;;;;15.95;100.00;101281.53;5112639;28;20038;-43
2023/09/28 03:15:31;;;;;;;0.10;0.10;;;;;;;15.99;100.00;101275.50;5113277;28;20023;-41
2023/09/28 03:17:57;;;;;;;0.10;0.10;;;;;;;15.93;100.00;101288.41;5113368;28;20421;-45
2023/09/28 03:20:22;;;;;;;0.10;0.10;;;;;;;15.92;100.00;101279.75;5112183;28;20016;-44
2023/09/28 03:22:52;;;;;;;0.10;0.10;;;;;;;15.91;100.00;101279.72;5113255;28;20054;-41
2023/09/28 03:25:20;;;;;;;0.10;0.10;;;;;;;15.93;100.00;101291.00;5112549;28;20032;-42
2023/09/28 03:27:50;;;;;;;0.10;0.10;;;;;;;15.87;100.00;101293.50;5113328;28;20032;-45
2023/09/28 03:30:18;;;;;;;0.00;0.00;;;;;;;15.84;100.00;101289.19;5112853;28;20051;-46
2023/09/28 03:32:43;;;;;;;0.10;0.10;;;;;;;15.82;100.00;101293.47;5112463;28;20023;-45
2023/09/28 03:35:10;;;;;;;0.10;0.10;;;;;;;15.78;100.00;101296.84;5113105;28;20352;-41
2023/09/28 03:37:40;;;;;;;0.10;0.10;;;;;;;15.74;100.00;101295.91;5113035;28;20133;-46
2023/09/28 03:40:12;;;;;;;0.10;0.10;;;;;;;15.70;100.00;101301.03;5112615;28;20080;-43
2023/09/28 03:42:41;;;;;;;0.10;0.10;;;;;;;15.67;100.00;101308.78;5113325;28;20045;-43
2023/09/28 03:45:08;;;;;;;0.10;0.10;;;;;;;15.70;100.00;101314.91;5113167;28;20020;-41
2023/09/28 03:47:38;;;;;;;0.10;0.10;;;;;;;15.59;100.00;101319.91;5111975;28;20114;-44
2023/09/28 03:50:05;;;;;;;0.10;0.10;;;;;;;15.64;100.00;101330.41;5113260;28;20065;-45
2023/09/28 03:52:31;;;;;;;0.10;0.10;;;;;;;15.57;100.00;101325.94;5112929;28;20047;-44
2023/09/28 03:54:57;;;;;;;0.10;0.10;;;;;;;15.53;100.00;101329.34;5112355;28;20027;-43
2023/09/28 03:57:22;;;;;;;0.10;0.10;;;;;;;15.45;100.00;101331.81;5112674;28;20040;-45
2023/09/28 03:59:49;;;;;;;0.10;0.10;;;;;;;15.51;100.00;101337.09;5112862;28;20356;-41
2023/09/28 04:02:14;;;;;;;0.10;0.10;;;;;;;15.43;100.00;101331.78;5111667;28;20023;-43
2023/09/28 04:04:39;;;;;;;0.00;0.00;;;;;;;15.34;100.00;101328.13;5113069;28;20049;-45
2023/09/28 04:07:05;;;;;;;0.10;0.10;;;;;;;15.35;100.00;101340.28;5113084;28;20040;-46
2023/09/28 04:09:32;;;;;;;0.10;0.10;;;;;;;15.35;100.00;101332.47;5111932;28;20493;-43
2023/09/28 04:11:58;;;;;;;;;;;;;;;15.40;100.00;101334.34;5113441;28;20016;-42
2023/09/28 04:14:23;;;;;;;0.10;0.10;;;;;;;15.30;100.00;101341.06;5112688;28;19919;-41
2023/09/28 04:16:49;;;;;;;0.10;0.10;;;;;;;15.26;100.00;101335.78;5112235;28;20081;-42
2023/09/28 04:19:14;;;;;;;0.10;0.10;;;;;;;15.25;100.00;101334.06;5112432;28;20374;-42
2023/09/28 04:21:40;;;;;;;0.10;0.10;;;;;;;15.16;100.00;101334.75;5115615;28;20081;-41
2023/09/28 04:24:08;;;;;;;0.10;0.10;;;;;;;15.13;100.00;101335.59;5116624;28;20035;-45
2023/09/28 04:26:34;;;;;;;0.10;0.10;;;;;;;15.13;100.00;101332.09;5116104;28;20031;-45
2023/09/28 04:28:59;;;;;;;0.10;0.10;;;;;;;15.09;100.00;101333.78;5115735;28;20031;-43
2023/09/28 04:31:25;;;;;;;0.10;0.10;;;;;;;15.04;100.00;101334.53;5116117;28;20383;-41
2023/09/28 04:33:50;;;;;;;0.10;0.10;;;;;;;15.02;100.00;101337.09;5116623;28;20145;-46
2023/09/28 04:36:22;;;;;;;0.10;0.10;;;;;;;14.97;100.00;101336.13;5115339;28;20024;-41
2023/09/28 04:38:49;;;;;;;0.10;0.10;;;;;;;14.96;100.00;101336.97;5116197;28;20352;-44
2023/09/28 04:41:14;;;;;;;0.10;0.10;;;;;;;14.96;100.00;101342.16;5115968;28;20487;-45
2023/09/28 04:43:40;;;;;;;0.10;0.10;;;;;;;14.93;100.00;101347.31;5115456;28;20109;-42
2023/09/28 04:46:07;;;;;;;0.10;0.10;;;;;;;14.87;100.00;101353.22;5115986;28;20061;-44
2023/09/28 04:48:32;;;;;;;0.10;0.10;;;;;;;14.77;100.00;101349.59;5116064;28;20039;-41
2023/09/28 04:50:58;;;;;;;0.10;0.10;;;;;;;14.73;100.00;101350.38;5115240;28;20073;-43
2023/09/28 04:53:23;;;;;;;0.10;0.10;;;;;;;14.68;100.00;101352.00;5115577;28;20027;-43
2023/09/28 04:55:48;;;;;;;0.10;0.10;;;;;;;14.60;100.00;101353.50;5115878;28;20027;-42
2023/09/28 04:58:14;;;;;;;0.10;0.10;;;;;;;14.62;100.00;101351.84;5114641;28;20052;-45
2023/09/28 05:00:39;;;;;;;0.10;0.10;;;;;;;14.54;100.00;101364.63;5115837;28;20038;-44
2023/09/28 05:03:04;;;;;;;0.10;0.10;;;;;;;14.46;100.00;101364.47;5116062;28;20080;-44
2023/09/28 05:05:32;;;;;;;0.10;0.10;;;;;;;14.34;100.00;101379.75;5114730;28;20387;-42
2023/09/28 05:07:58;;;;;;;0.10;0.10;;;;;;;14.40;100.00;101386.81;5115906;28;20099;-43
2023/09/28 05:10:23;;;;;;;0.10;0.10;;;;;;;14.34;100.00;101392.72;5115476;28;20386;-45
2023/09/28 05:12:48;;;;;;;0.10;0.10;;;;;;;14.34;100.00;101392.72;5114903;28;20019;-45
2023/09/28 05:15:15;;;;;;;0.10;0.10;;;;;;;14.36;100.00;101396.22;5115223;28;20016;-44
2023/09/28 05:17:40;;;;;;;0.10;0.10;;;;;;;14.38;100.00;101398.84;5115548;28;20534;-43
2023/09/28 05:20:08;;;;;;;0.10;0.10;;;;;;;14.36;100.00;101406.59;5114871;28;20099;-43
2023/09/28 05:22:33;;;;;;;0.10;0.10;;;;;;;14.35;100.00;101403.97;5115359;28;20034;-44
2023/09/28 05:24:59;;;;;;;0.10;0.10;;;;;;;14.35;100.00;101404.84;5114569;28;20054;-44
2023/09/28 05:27:24;;;;;;;0.00;0.00;;;;;;;14.35;100.00;101403.97;5115013;28;20106;-43
2023/09/28 05:29:50;;;;;;;0.10;0.10;;;;;;;14.33;100.00;101412.59;5115201;28;20027;-43
2023/09/28 05:32:15;;;;;;;0.10;0.10;;;;;;;14.34;100.00;101426.41;5113513;28;20072;-43
2023/09/28 05:34:40;;;;;;;0.10;0.10;;;;;;;14.33;100.00;101428.16;5115414;28;20028;-42
2023/09/28 05:37:06;;;;;;;0.10;0.10;;;;;;;14.29;100.00;101428.94;5115422;28;20374;-41
2023/09/28 05:39:31;;;;;;;0.10;0.10;;;;;;;14.30;100.00;101429.78;5114121;28;20031;-40
2023/09/28 05:41:57;;;;;;;0.10;0.10;;;;;;;14.28;100.00;101423.69;5115086;28;20102;-45
2023/09/28 05:44:22;;;;;;;0.10;0.10;;;;;;;14.31;100.00;101436.72;5114436;28;20382;-41
2023/09/28 05:46:48;;;;;;;0.10;0.10;;;;;;;14.21;100.00;101433.03;5114441;28;20023;-43
2023/09/28 05:49:15;;;;;;;0.20;0.20;;;;;;;14.20;100.00;101441.63;5114556;28;20016;-42
2023/09/28 05:51:41;;;;;;;0.10;0.10;;;;;;;14.16;100.00;101443.31;5114981;28;20428;-43
2023/09/28 05:54:06;;;;;;;0.10;0.10;;;;;;;14.16;100.00;101443.31;5114076;28;20459;-41
2023/09/28 05:56:31;;;;;;;0.10;0.10;;;;;;;14.09;100.00;101449.16;5114253;28;20048;-44
2023/09/28 05:58:57;;;;;;;0.10;0.10;;;;;;;14.11;100.00;101456.97;5114665;28;20023;-42
2023/09/28 06:01:22;;;;;;;0.10;0.10;;;;;;;14.06;100.00;101458.56;5113628;28;20028;-41
2023/09/28 06:03:47;;;;;;;0.10;0.10;;;;;;;14.05;100.00;101473.25;5114663;28;20030;-41
2023/09/28 06:06:17;;;;;;;0.10;0.10;;;;;;;14.04;100.00;101470.63;5114321;28;20372;-44
2023/09/28 06:08:43;;;;;;;0.10;0.10;;;;;;;14.00;100.00;101477.44;5113859;28;20024;-41
2023/09/28 06:11:16;;;;;;;0.20;0.20;;;;;;;13.99;100.00;101471.41;5114563;28;20028;-43
2023/09/28 06:13:43;;;;;;;0.10;0.10;;;;;;;13.98;100.00;101455.78;5114592;28;20032;-41
2023/09/28 06:16:10;;;;;;;0.10;0.10;;;;;;;13.94;100.00;101459.16;5113793;28;20386;-42
2023/09/28 06:18:38;;;;;;;0.10;0.10;;;;;;;14.00;100.00;101459.31;5114137;28;20043;-45
2023/09/28 06:21:04;;;;;;;0.10;0.10;;;;;;;13.98;100.00;101453.19;5114253;28;20494;-43
2023/09/28 06:23:30;;;;;;;0.10;0.10;;;;;;;13.97;100.00;101464.44;5113197;28;20024;-44
2023/09/28 06:25:56;;;;;;;0.10;0.10;;;;;;;13.98;100.00;101469.66;5114132;28;20050;-43
2023/09/28 06:28:23;;;;;;;0.10;0.10;;;;;;;13.95;100.00;101471.28;5113274;28;20019;-44
2023/09/28 06:30:49;;;;;;;0.10;0.10;;;;;;;13.94;100.00;101475.59;5114040;28;20483;-45
2023/09/28 06:33:15;;;;;;;0.10;0.10;;;;;;;13.96;100.00;101486.00;5113786;28;20108;-44
2023/09/28 06:35:40;;;;;;;0.10;0.10;;;;;;;13.97;100.00;101487.75;5113495;28;20032;-44
2023/09/28 06:38:05;;;;;;;0.10;0.10;;;;;;;14.02;100.00;101491.34;5114029;28;20090;-45
2023/09/28 06:40:31;;;;;;;0.20;0.20;;;;;;;14.03;100.00;101495.66;5113579;28;20471;-43
2023/09/28 06:42:57;;;;;;;0.10;0.10;;;;;;;14.09;100.00;101495.81;5113272;28;20087;-42
2023/09/28 06:45:22;;;;;;;0.10;0.10;;;;;;;14.13;100.00;101489.88;5113507;28;20471;-45
2023/09/28 06:47:47;;;;;;;0.10;0.10;;;;;;;14.18;100.00;101494.28;5113838;28;20059;-43
2023/09/28 06:50:13;;;;;;;0.10;0.10;;;;;;;14.20;100.00;101497.81;5112549;28;20050;-41
2023/09/28 06:52:38;;;;;;;0.20;0.20;;;;;;;14.27;100.00;101498.00;5113492;28;20482;-42
2023/09/28 06:55:05;;;;;;;0.10;0.10;;;;;;;14.33;100.00;101497.25;5113611;28;20028;-45
2023/09/28 06:57:30;;;;;;;0.10;0.10;;;;;;;14.39;100.00;101510.38;5112333;28;20039;-44
2023/09/28 06:59:56;;;;;;;0.10;0.10;;;;;;;14.47;100.00;101518.34;5113779;28;20031;-42
2023/09/28 07:02:21;;;;;;;0.10;0.10;;;;;;;14.54;100.00;101516.78;5113464;28;20035;-43
2023/09/28 07:04:46;;;;;;;0.10;0.10;;;;;;;14.61;100.00;101527.34;5112746;28;20034;-41
2023/09/28 07:07:16;;;;;;;0.10;0.10;;;;;;;14.69;100.00;101535.34;5113224;28;20026;-44
2023/09/28 07:09:42;;;;;;;0.10;0.10;;;;;;;14.84;100.00;101539.16;5113466;28;20024;-41
2023/09/28 07:12:09;;;;;;;0.10;0.10;;;;;;;14.91;100.00;101535.84;5112601;28;20024;-45
2023/09/28 07:14:35;;;;;;;;;;;;;;;15.00;100.00;101527.41;5113780;28;20027;-44
2023/09/28 07:17:00;;;;;;;0.10;0.10;;;;;;;15.18;100.00;101532.13;5113488;28;19914;-44
2023/09/28 07:19:26;;;;;;;0.10;0.10;;;;;;;15.31;100.00;101522.03;5112304;28;20261;-41
2023/09/28 07:21:51;;;;;;;0.10;0.10;;;;;;;15.42;100.00;101530.03;5113350;28;20055;-43
2023/09/28 07:24:16;;;;;;;0.10;0.10;;;;;;;15.50;100.00;101535.38;5112771;28;20027;-43
2023/09/28 07:26:42;;;;;;;0.10;0.10;;;;;;;15.57;100.00;101533.78;5112357;28;20466;-44
2023/09/28 07:29:08;;;;;;;0.10;0.10;;;;;;;15.53;100.00;101501.69;5113406;28;20031;-42
2023/09/28 07:31:33;;;;;;;0.10;0.10;;;;;;;15.45;100.00;101514.53;5112183;28;20374;-42
2023/09/28 07:33:59;;;;;;;0.10;0.10;;;;;;;15.38;100.00;101525.63;5113347;28;20514;-42
2023/09/28 07:36:24;;;;;;;0.10;0.10;;;;;;;15.32;100.00;101538.47;5112906;28;20111;-42
2023/09/28 07:38:50;;;;;;;0.10;0.10;;;;;;;15.39;100.00;101550.75;5112213;28;20486;-44
2023/09/28 07:41:15;;;;;;;0.10;0.10;;;;;;;15.49;100.00;101554.41;5112792;28;20028;-44
2023/09/28 07:43:40;;;;;;;0.10;0.10;;;;;;;15.59;100.00;101539.91;5113281;28;20486;-41
2023/09/28 07:46:07;;;;;;;0.10;0.10;;;;;;;15.74;100.00;101547.13;5112187;28;20466;-42
2023/09/28 07:48:32;;;;;;;0.10;0.10;;;;;;;15.85;100.00;101560.34;5112841;28;20153;-42
2023/09/28 07:50:58;;;;;;;0.10;0.10;;;;;;;15.96;100.00;101553.63;5112936;28;20057;-42
2023/09/28 07:53:24;;;;;;;0.10;0.10;;;;;;;16.07;100.00;101552.09;5112024;28;20022;-43
2023/09/28 07:55:50;;;;;;;0.10;0.10;;;;;;;16.20;100.00;101552.31;5115303;28;20097;-42
2023/09/28 07:58:15;;;;;;;0.10;0.10;;;;;;;16.30;100.00;101564.63;5116604;28;20075;-44
2023/09/28 08:00:41;;;;;;;0.10;0.10;;;;;;;16.41;100.00;101576.13;5116339;28;20039;-42
2023/09/28 08:03:06;;;;;;;0.10;0.10;;;;;;;16.49;100.00;101575.34;5117162;28;20031;-44
2023/09/28 08:05:31;;;;;;;0.17;0.17;;;;;;;16.54;100.00;101574.59;5116616;28;20096;-45
2023/09/28 08:07:57;;;;;;;0.10;0.10;;;;;;;16.67;100.00;101575.66;5116045;28;20407;-44
2023/09/28 08:10:22;;;;;;;0.10;0.10;;;;;;;16.81;100.00;101580.22;5116468;28;20031;-44
2023/09/28 08:12:48;;;;;;;0.10;0.10;;;;;;;16.90;100.00;101573.47;5117004;28;20020;-44
2023/09/28 08:15:15;;;;;;;0.10;0.10;;;;;;;16.98;100.00;101580.50;5115821;28;20030;-44
2023/09/28 08:17:44;;;;;;;0.10;0.10;;;;;;;17.02;100.00;101583.19;5116989;28;20035;-45
2023/09/28 08:20:10;;;;;;;0.10;0.10;;;;;;;17.11;100.00;101583.31;5116817;28;20031;-43
2023/09/28 08:22:35;;;;;;;0.10;0.10;;;;;;;17.23;100.00;101576.53;5115400;28;20031;-44
2023/09/28 08:25:01;;;;;;;0.10;0.10;;;;;;;17.31;100.00;101579.22;5116471;28;20023;-47
2023/09/28 08:27:26;;;;;;;0.10;0.10;;;;;;;17.44;100.00;101582.03;5116118;28;20023;-43
2023/09/28 08:29:51;;;;;;;0.10;0.10;;;;;;;17.57;100.00;101589.97;5115784;28;20023;-42
2023/09/28 08:32:17;;;;;;;0.10;0.10;;;;;;;17.57;100.00;101595.19;5116050;28;20016;-46
2023/09/28 08:34:43;;;;;;;0.10;0.10;;;;;;;17.76;100.00;101597.16;5116581;28;20035;-44
2023/09/28 08:37:08;;;;;;;0.10;0.10;;;;;;;17.72;100.00;101579.75;5115667;28;20047;-46
2023/09/28 08:39:35;;;;;;;0.10;0.10;;;;;;;17.74;100.00;101604.13;5115869;28;20043;-43
2023/09/28 08:42:02;;;;;;;0.10;0.10;;;;;;;17.76;100.00;101605.00;5115600;28;20100;-43
2023/09/28 08:44:31;;;;;;;0.10;0.10;;;;;;;17.76;100.00;101605.00;5115803;28;20472;-45
2023/09/28 08:46:58;;;;;;;0.10;0.10;;;;;;;17.77;100.00;101616.31;5116264;28;20031;-44
2023/09/28 08:49:27;;;;;;;0.10;0.10;;;;;;;17.77;100.00;101621.53;5114980;28;20352;-42
2023/09/28 08:51:56;;;;;;;0.10;0.10;;;;;;;17.81;100.00;101627.66;5116082;28;20024;-46
2023/09/28 08:54:23;;;;;;;0.10;0.10;;;;;;;17.91;100.00;101624.31;5115899;28;20084;-42
2023/09/28 08:56:53;;;;;;;0.10;0.10;;;;;;;18.48;100.00;101632.75;5114851;28;20514;-45
2023/09/28 08:59:19;;;;;;;0.10;0.10;;;;;;;18.66;100.00;101626.81;5115608;28;20281;-46
2023/09/28 09:01:46;;;;;;;0.08;0.08;;;;;;;18.98;100.00;101626.25;5115807;28;20069;-45
2023/09/28 09:04:12;;;;;;;;;;;;;;;19.09;99.43;101631.53;5114998;28;20047;-42
2023/09/28 09:06:37;;;;;;;0.10;0.10;;;;;;;18.56;97.82;101630.22;5114814;28;19939;-43
2023/09/28 09:09:06;;;;;;;0.10;0.10;;;;;;;18.20;96.37;101636.81;5115771;28;20045;-42
2023/09/28 09:11:33;;;;;;;0.10;0.10;;;;;;;18.08;98.84;101634.97;5114527;28;20084;-46
2023/09/28 09:13:59;;;;;;;0.10;0.10;;;;;;;17.97;98.19;101645.25;5115611;28;20026;-43
2023/09/28 09:16:27;;;;;;;0.10;0.10;;;;;;;17.80;97.54;101642.41;5115268;28;20390;-46
2023/09/28 09:18:53;;;;;;;0.10;0.10;;;;;;;17.74;99.77;101631.91;5114633;28;20514;-43
2023/09/28 09:21:19;;;;;;;0.10;0.10;;;;;;;17.78;99.82;101628.50;5115478;28;20035;-41
2023/09/28 09:24:03;;;;;;;0.10;0.10;;;;;;;18.01;100.00;101633.13;5115595;28;20024;-42
2023/09/28 09:26:37;;;;;;;0.10;0.10;;;;;;;18.05;98.17;101633.19;5115184;28;20027;-46
2023/09/28 09:29:03;;;;;;;0.00;0.00;;;;;;;18.18;99.43;101631.59;5115364;28;20027;-44
2023/09/28 09:31:30;;;;;;;0.10;0.10;;;;;;;18.30;98.21;101628.22;5114234;28;20496;-44
2023/09/28 09:33:56;;;;;;;0.10;0.10;;;;;;;18.26;96.73;101642.97;5115441;28;20024;-44
2023/09/28 09:36:21;;;;;;;0.10;0.10;;;;;;;18.21;96.50;101643.78;5115098;28;20028;-43
2023/09/28 09:38:53;;;;;;;0.10;0.10;;;;;;;18.10;96.07;101641.94;5114537;28;20111;-44
2023/09/28 09:41:18;;;;;;;0.00;0.00;;;;;;;18.16;97.23;101646.34;5114772;28;20484;-45
2023/09/28 09:43:43;;;;;;;0.10;0.10;;;;;;;18.30;97.08;101649.09;5115122;28;20111;-45
2023/09/28 09:46:09;;;;;;;0.10;0.10;;;;;;;18.49;93.14;101654.50;5114076;28;20096;-43
2023/09/28 09:48:40;;;;;;;0.10;0.10;;;;;;;18.61;93.14;101643.31;5114709;28;20015;-42
2023/09/28 09:51:12;;;;;;;0.10;0.10;;;;;;;18.84;90.70;101646.13;5114818;28;20039;-46
2023/09/28 09:53:45;;;;;;;0.10;0.10;;;;;;;18.92;89.00;101649.69;5114158;28;20042;-50
2023/09/28 09:56:11;;;;;;;0.10;0.10;;;;;;;19.21;88.97;101652.53;5114765;28;20027;-46
2023/09/28 09:58:40;;;;;;;0.10;0.10;;;;;;;19.33;86.41;101651.72;5114800;28;20068;-45
2023/09/28 10:01:13;;;;;;;0.00;0.00;;;;;;;19.82;83.27;101653.75;5113818;28;20479;-46
2023/09/28 10:03:42;;;;;;;0.10;0.10;;;;;;;20.18;81.91;101665.22;5114840;28;20024;-47
2023/09/28 10:06:09;;;;;;;0.10;0.10;;;;;;;20.70;83.48;101656.59;5114479;28;20038;-47
2023/09/28 10:08:35;;;;;;;0.00;0.00;;;;;;;21.09;78.27;101647.84;5113815;28;20027;-46
2023/09/28 10:11:00;;;;;;;0.10;0.10;;;;;;;21.29;72.46;101643.44;5114479;28;20375;-45
2023/09/28 10:13:27;;;;;;;0.00;0.00;;;;;;;21.29;71.79;101642.53;5113627;28;20024;-44
2023/09/28 10:15:54;;;;;;;0.00;0.00;;;;;;;20.87;74.54;101637.38;5114622;28;20019;-45
2023/09/28 10:18:20;;;;;;;0.00;0.00;;;;;;;21.13;73.92;101626.00;5113926;28;20024;-45
2023/09/28 10:20:46;;;;;;;0.03;0.03;;;;;;;21.66;72.50;101617.09;5113628;28;20023;-45
2023/09/28 10:23:16;;;;;;;0.10;0.00;;;;;;;21.47;72.02;101615.41;5113927;28;20047;-44
2023/09/28 10:25:57;;;;;;;0.00;0.00;;;;;;;21.56;73.54;101614.53;5114085;28;20054;-45
2023/09/28 10:28:22;;;;;;;0.00;0.00;;;;;;;21.30;69.60;101597.97;5113287;28;20115;-46
2023/09/28 10:31:15;;;;;;;0.00;0.00;;;;;;;21.60;71.14;101611.91;5114243;28;20023;-46
2023/09/28 10:34:03;;;;;;;0.00;0.00;;;;;;;21.57;68.54;101626.78;5114116;28;20475;-45
2023/09/28 10:36:30;;;;;;;0.00;0.00;;;;;;;21.76;66.57;101619.72;5113095;28;20020;-42
2023/09/28 10:39:15;;;;;;;0.00;0.00;;;;;;;22.03;66.61;101631.81;5114175;28;20042;-48
2023/09/28 10:41:52;;;;;;;0.00;0.00;;;;;;;21.46;69.75;101630.28;5113110;28;20378;-43
2023/09/28 10:44:21;;;;;;;0.00;0.00;;;;;;;21.32;69.93;101627.69;5113477;28;20024;-42
2023/09/28 10:46:51;;;;;;;0.00;0.00;;;;;;;21.08;72.41;101633.84;5114045;28;20274;-45
2023/09/28 10:49:27;;;;;;;0.00;0.00;;;;;;;21.40;73.22;101629.44;5113012;28;20035;-47
2023/09/28 10:51:55;;;;;;;0.03;0.03;;;;;;;21.42;69.70;101632.91;5113837;28;20028;-45
2023/09/28 10:54:21;;;;;;;0.00;0.00;;;;;;;21.43;69.49;101629.41;5113482;28;20076;-47
2023/09/28 10:56:48;;;;;;;0.00;0.00;;;;;;;21.19;70.69;101626.84;5112674;28;20111;-42
2023/09/28 10:59:14;;;;;;;0.00;0.00;;;;;;;21.38;71.71;101632.94;5113259;28;20484;-46
2023/09/28 11:01:44;;;;;;;0.00;0.00;;;;;;;21.30;70.84;101634.69;5113893;28;20153;-41
2023/09/28 11:04:10;;;;;;;0.00;0.00;;;;;;;21.38;67.25;101637.28;5112863;28;20027;-43
2023/09/28 11:06:35;;;;;;;0.00;0.00;;;;;;;21.87;69.48;101646.75;5113271;28;20024;-42
2023/09/28 11:09:01;;;;;;;0.00;0.00;;;;;;;21.41;68.31;101646.88;5113404;28;20027;-40
2023/09/28 11:11:28;;;;;;;0.00;0.00;;;;;;;21.09;69.71;101640.84;5112231;28;20031;-41
2023/09/28 11:13:56;;;;;;;0.00;0.00;;;;;;;21.01;71.03;101658.34;5113472;28;20529;-40
2023/09/28 11:16:25;;;;;;;0.00;0.00;;;;;;;20.83;71.12;101653.97;5113155;28;20020;-40
2023/09/28 11:18:51;;;;;;;0.10;0.10;;;;;;;20.70;73.22;101660.97;5112719;28;20505;-41